Time;durP1;ratioP1;P1;durP2;ratioP2;P2;SDS_P1;SDS_P2;PMS_P1;PMS_P2;Temp;Humidity;BMP_temperature;BMP_pressure;BME280_temperature;BME280_humidity;BME280_pressure;Samples;Min_cycle;Max_cycle;Signal;HPM_P1;HPM_P2
2022/04/27 00:00:43;;;;;;;6.38;2.80;;;;;;;25.00;29.47;101567.69;5091902;28;20055;-41
2022/04/27 00:03:12;;;;;;;6.35;2.30;;;;;;;24.95;29.79;101558.84;5092853;28;20028;-41
2022/04/27 00:05:41;;;;;;;7.05;2.30;;;;;;;24.98;29.43;101561.53;5093160;28;20025;-41
2022/04/27 00:08:10;;;;;;;6.18;2.33;;;;;;;25.01;29.65;101566.84;5092984;28;20074;-42
2022/04/27 00:10:38;;;;;;;6.10;2.40;;;;;;;25.01;29.55;101572.97;5091548;28;20055;-41
2022/04/27 00:13:07;;;;;;;6.25;2.72;;;;;;;24.97;29.53;101563.28;5092985;28;20033;-41
2022/04/27 00:15:36;;;;;;;4.38;2.20;;;;;;;25.05;29.57;101565.16;5092818;28;20025;-42
2022/04/27 00:18:05;;;;;;;6.15;2.50;;;;;;;24.95;29.49;101559.75;5096940;28;20473;-44
2022/04/27 00:20:32;;;;;;;5.80;2.80;;;;;;;24.99;29.17;101569.41;5062091;28;20441;-41
2022/04/27 00:23:00;;;;;;;5.28;2.72;;;;;;;24.85;29.62;101548.19;5096503;28;20028;-43
2022/04/27 00:25:29;;;;;;;5.55;2.75;;;;;;;24.94;29.83;101565.84;5096173;28;20103;-41
2022/04/27 00:27:58;;;;;;;5.03;2.63;;;;;;;24.89;29.40;101536.00;5095428;28;20020;-42
2022/04/27 00:30:26;;;;;;;4.72;2.35;;;;;;;25.00;29.52;101565.06;5094841;28;20039;-41
2022/04/27 00:32:55;;;;;;;4.28;2.33;;;;;;;24.96;29.55;101565.88;5095066;28;20035;-41
2022/04/27 00:35:23;;;;;;;3.53;2.35;;;;;;;25.00;29.44;101565.94;5096246;28;20016;-41
2022/04/27 00:37:51;;;;;;;5.35;2.40;;;;;;;24.94;29.49;101564.94;5095957;28;20027;-41
2022/04/27 00:40:20;;;;;;;4.00;2.25;;;;;;;24.88;29.19;101553.50;5096258;28;20028;-41
2022/04/27 00:42:49;;;;;;;8.48;2.80;;;;;;;25.02;29.17;101576.50;5095816;28;20426;-42
2022/04/27 00:45:17;;;;;;;6.63;2.63;;;;;;;24.93;29.44;101565.81;5096112;28;20020;-41
2022/04/27 00:47:46;;;;;;;4.75;2.45;;;;;;;24.93;29.25;101564.06;5095880;28;20020;-44
2022/04/27 00:50:15;;;;;;;6.20;2.88;;;;;;;24.86;29.41;101578.84;5095788;28;20071;-41
2022/04/27 00:52:42;;;;;;;7.15;2.20;;;;;;;24.84;29.72;101563.88;5095972;28;20047;-42
2022/04/27 00:55:11;;;;;;;6.30;2.60;;;;;;;24.85;29.66;101578.78;5093813;28;20031;-43
2022/04/27 00:57:40;;;;;;;4.97;2.50;;;;;;;24.94;29.14;101564.94;5094049;28;20035;-43
2022/04/27 01:00:09;;;;;;;4.13;2.60;;;;;;;24.94;29.22;101571.09;5095880;28;20024;-41
2022/04/27 01:02:37;;;;;;;5.57;2.30;;;;;;;24.86;29.46;101565.72;5094372;28;20024;-42
2022/04/27 01:05:09;;;;;;;5.80;2.50;;;;;;;24.81;29.27;101555.97;5077504;28;20032;-46
2022/04/27 01:07:40;;;;;;;4.03;2.28;;;;;;;24.83;29.51;101578.75;5096213;28;20103;-41
2022/04/27 01:10:10;;;;;;;4.40;2.58;;;;;;;24.82;29.43;101578.75;5077081;28;20052;-43
2022/04/27 01:12:39;;;;;;;3.70;2.30;;;;;;;24.78;29.28;101579.53;5094131;28;20024;-43
2022/04/27 01:15:08;;;;;;;5.13;2.42;;;;;;;24.80;29.48;101575.22;5094142;28;20028;-42
2022/04/27 01:17:36;;;;;;;5.75;2.33;;;;;;;24.74;29.45;101560.19;5077743;28;20028;-42
2022/04/27 01:20:05;;;;;;;4.22;2.13;;;;;;;24.86;29.64;101572.69;5077395;28;20492;-42
2022/04/27 01:22:34;;;;;;;7.03;3.15;;;;;;;24.84;29.25;101574.38;5095104;28;20035;-42
2022/04/27 01:25:02;;;;;;;5.72;2.40;;;;;;;24.83;29.37;101570.00;5076949;28;20030;-41
2022/04/27 01:27:30;;;;;;;6.18;2.22;;;;;;;24.77;29.17;101565.50;5093402;28;20477;-44
2022/04/27 01:29:59;;;;;;;4.90;2.72;;;;;;;24.93;29.10;101581.53;5076623;28;20750;-43
2022/04/27 01:32:27;;;;;;;5.20;2.72;;;;;;;24.88;29.43;101587.63;5095011;28;20024;-43
2022/04/27 01:34:56;;;;;;;4.07;2.22;;;;;;;24.83;29.32;101581.38;5094873;28;20389;-41
2022/04/27 01:38:07;;;;;;;4.75;2.47;;;;;;;24.86;29.41;101591.06;5093731;28;20028;-41
2022/04/27 01:40:13;;;;;;;6.85;3.40;;;;;;;24.80;29.48;101580.47;5085268;28;20043;-41
2022/04/27 01:42:41;;;;;;;5.45;2.78;;;;;;;24.85;29.31;101594.53;5077117;28;20093;-41
2022/04/27 01:45:10;;;;;;;3.70;2.30;;;;;;;24.85;29.04;101581.41;5094879;28;20024;-41
2022/04/27 01:47:39;;;;;;;4.00;2.40;;;;;;;24.89;29.11;101604.25;5093741;28;20031;-42
2022/04/27 01:50:07;;;;;;;5.75;2.72;;;;;;;24.87;29.01;101598.06;5094990;28;20031;-41
2022/04/27 01:55:24;;;;;;;4.30;2.70;;;;;;;24.84;29.30;101598.91;5091499;28;20036;-42
2022/04/27 01:57:53;;;;;;;4.28;2.35;;;;;;;24.81;29.01;101606.72;5094085;28;20031;-45
2022/04/27 02:00:21;;;;;;;4.13;2.30;;;;;;;24.90;29.35;101598.13;5094469;28;20027;-41
2022/04/27 02:02:50;;;;;;;4.13;2.38;;;;;;;24.86;29.09;101604.16;5094826;28;20035;-42
2022/04/27 02:05:19;;;;;;;7.70;2.95;;;;;;;24.73;29.49;101582.94;5094856;28;20016;-41
2022/04/27 02:07:47;;;;;;;3.08;2.28;;;;;;;24.73;29.15;101593.44;5093295;28;20031;-41
2022/04/27 02:10:16;;;;;;;3.50;2.42;;;;;;;24.69;29.36;101590.69;5092944;28;20388;-42
2022/04/27 02:12:44;;;;;;;4.32;2.50;;;;;;;24.77;29.44;101601.38;5094747;28;20024;-41
2022/04/27 02:15:13;;;;;;;5.13;2.65;;;;;;;24.75;29.61;101595.22;5094350;28;20020;-43
2022/04/27 02:17:42;;;;;;;4.78;2.97;;;;;;;24.76;29.05;101581.25;5094070;28;20091;-42
2022/04/27 02:20:10;;;;;;;3.50;2.25;;;;;;;24.78;29.42;101590.03;5094061;28;20492;-42
2022/04/27 02:22:40;;;;;;;6.55;2.95;;;;;;;24.72;29.37;101589.03;5076375;28;20028;-41
2022/04/27 02:25:09;;;;;;;4.43;2.50;;;;;;;24.76;29.28;101592.59;5094120;28;20024;-43
2022/04/27 02:27:37;;;;;;;3.47;2.28;;;;;;;24.81;29.29;101596.22;5092720;28;20050;-43
2022/04/27 02:30:07;;;;;;;6.00;2.53;;;;;;;24.79;29.09;101600.53;5093144;28;20032;-41
2022/04/27 02:32:35;;;;;;;5.95;2.50;;;;;;;24.83;29.07;101598.84;5093918;28;20047;-41
2022/04/27 02:35:03;;;;;;;4.57;3.05;;;;;;;24.81;29.11;101600.59;5093985;28;20024;-41
2022/04/27 02:37:35;;;;;;;5.20;2.78;;;;;;;24.71;29.25;101596.91;5093881;28;20031;-42
2022/04/27 02:40:05;;;;;;;3.75;2.20;;;;;;;24.74;29.12;101594.31;5092201;28;20043;-41
2022/04/27 02:42:33;;;;;;;8.27;3.17;;;;;;;24.76;29.17;101603.09;5093979;28;20472;-41
2022/04/27 02:45:03;;;;;;;4.93;2.47;;;;;;;24.73;29.20;101603.94;5092651;28;20016;-41
2022/04/27 02:47:32;;;;;;;4.30;2.55;;;;;;;24.73;28.97;101608.31;5093915;28;20062;-42
2022/04/27 02:52:48;;;;;;;3.70;2.30;;;;;;;24.66;29.41;101609.88;5085058;28;20032;-44
2022/04/27 02:55:22;;;;;;;4.40;2.25;;;;;;;24.68;29.21;101605.53;5093973;28;20016;-42
2022/04/27 02:57:51;;;;;;;4.22;2.40;;;;;;;24.70;29.37;101603.88;5092513;28;20484;-41
2022/04/27 03:00:19;;;;;;;4.85;2.42;;;;;;;24.78;29.04;101600.53;5091868;28;20055;-42
2022/04/27 03:02:48;;;;;;;4.45;2.58;;;;;;;24.77;29.01;101604.00;5093683;28;20105;-43
2022/04/27 03:05:16;;;;;;;3.40;2.28;;;;;;;24.76;29.24;101599.59;5092990;28;20374;-44
2022/04/27 03:07:45;;;;;;;4.60;2.65;;;;;;;24.77;29.06;101604.00;5093516;28;20031;-41
2022/04/27 03:10:13;;;;;;;6.47;2.38;;;;;;;24.80;28.96;101610.19;5093362;28;20172;-41
2022/04/27 03:12:40;;;;;;;4.13;2.75;;;;;;;24.72;29.24;101604.78;5092204;28;20024;-45
2022/04/27 03:15:09;;;;;;;4.65;2.70;;;;;;;24.73;28.98;101598.69;5092984;28;20370;-41
2022/04/27 03:17:38;;;;;;;4.00;2.45;;;;;;;24.78;29.06;101608.41;5093263;28;20177;-43
2022/04/27 03:20:06;;;;;;;4.03;2.72;;;;;;;24.71;28.94;101610.88;5093418;28;20420;-41
2022/04/27 03:22:35;;;;;;;3.53;2.40;;;;;;;24.71;29.03;101604.78;5092941;28;20024;-41
2022/04/27 03:25:04;;;;;;;4.85;2.88;;;;;;;24.64;29.02;101600.22;5092718;28;20036;-41
2022/04/27 03:27:32;;;;;;;3.28;2.67;;;;;;;24.56;28.93;101586.94;5093171;28;20020;-42
2022/04/27 03:30:01;;;;;;;4.32;2.65;;;;;;;24.62;28.92;101602.81;5093170;28;20028;-41
2022/04/27 03:32:29;;;;;;;4.13;2.75;;;;;;;24.68;28.90;101602.03;5092186;28;20141;-41
2022/04/27 03:34:58;;;;;;;4.70;3.10;;;;;;;24.60;29.28;101607.13;5091754;28;20028;-41
2022/04/27 03:37:26;;;;;;;5.43;3.00;;;;;;;24.55;28.93;101600.91;5074530;28;20047;-42
2022/04/27 03:39:55;;;;;;;5.97;3.28;;;;;;;24.52;29.26;101606.06;5092717;28;20462;-45
2022/04/27 03:42:23;;;;;;;4.45;2.90;;;;;;;24.52;29.32;101604.34;5093014;28;20085;-44
2022/04/27 03:44:52;;;;;;;4.63;2.70;;;;;;;24.46;29.39;101604.22;5092889;28;20036;-42
2022/04/27 03:47:20;;;;;;;6.13;3.22;;;;;;;24.48;29.11;101602.53;5093133;28;20028;-41
2022/04/27 03:49:49;;;;;;;6.07;2.90;;;;;;;24.51;28.80;101599.97;5091472;28;20485;-49
2022/04/27 03:52:17;;;;;;;5.35;3.53;;;;;;;24.47;28.86;101599.88;5095480;28;20111;-41
2022/04/27 03:54:47;;;;;;;5.05;3.42;;;;;;;24.46;29.32;101603.34;5096702;28;20024;-42
2022/04/27 03:57:17;;;;;;;4.22;2.72;;;;;;;24.40;29.11;101594.50;5096882;28;20024;-42
2022/04/27 03:59:46;;;;;;;4.93;2.67;;;;;;;24.44;29.28;101595.44;5096812;28;20016;-41
2022/04/27 04:02:15;;;;;;;4.63;2.88;;;;;;;24.50;29.06;101600.81;5096899;28;20038;-44
2022/04/27 04:04:43;;;;;;;3.88;2.85;;;;;;;24.40;29.23;101593.63;5096715;28;20016;-41
2022/04/27 04:07:12;;;;;;;6.68;3.15;;;;;;;24.46;29.20;101604.22;5096438;28;20032;-41
2022/04/27 04:09:41;;;;;;;6.60;3.10;;;;;;;24.39;29.21;101597.97;5096319;28;20048;-41
2022/04/27 04:12:10;;;;;;;5.25;2.53;;;;;;;24.42;29.34;101600.66;5095197;28;20542;-42
2022/04/27 04:14:39;;;;;;;6.55;3.72;;;;;;;24.46;29.15;101598.09;5096542;28;20032;-43
2022/04/27 04:17:07;;;;;;;2.70;2.10;;;;;;;24.47;29.39;101599.88;5096420;28;20111;-41
2022/04/27 04:19:35;;;;;;;4.70;2.80;;;;;;;24.54;28.57;101601.75;5096101;28;20024;-42
2022/04/27 04:22:04;;;;;;;2.83;2.45;;;;;;;24.43;28.87;101604.16;5096057;28;20020;-45
2022/04/27 04:24:33;;;;;;;6.30;3.03;;;;;;;24.41;28.76;101606.75;5096401;28;20021;-41
2022/04/27 04:29:48;;;;;;;5.07;2.53;;;;;;;24.47;29.15;101607.75;5088810;28;20052;-41
2022/04/27 04:32:17;;;;;;;6.22;2.92;;;;;;;24.45;29.01;101612.06;5096245;28;20020;-41
2022/04/27 04:34:45;;;;;;;5.40;2.70;;;;;;;24.42;28.75;101610.25;5095985;28;20028;-41
2022/04/27 04:37:14;;;;;;;5.43;2.75;;;;;;;24.37;29.17;101611.91;5095984;28;20024;-42
2022/04/27 04:39:42;;;;;;;5.35;3.10;;;;;;;24.37;28.99;101604.91;5094827;28;20366;-42
2022/04/27 04:42:11;;;;;;;3.90;2.88;;;;;;;24.33;28.52;101615.31;5095748;28;20058;-43
2022/04/27 04:44:39;;;;;;;3.85;2.38;;;;;;;24.29;28.79;101609.13;5095765;28;20024;-41
2022/04/27 04:47:08;;;;;;;3.78;2.22;;;;;;;24.35;28.86;101600.50;5095824;28;20111;-41
2022/04/27 04:49:37;;;;;;;3.53;2.30;;;;;;;24.32;28.99;101621.41;5094498;28;20115;-41
2022/04/27 04:52:07;;;;;;;4.50;2.38;;;;;;;24.24;29.10;101621.22;5095958;28;20073;-42
2022/04/27 04:54:36;;;;;;;4.07;2.90;;;;;;;24.35;28.81;101624.09;5095716;28;20024;-42
2022/04/27 04:57:05;;;;;;;4.30;2.60;;;;;;;24.21;29.02;101619.44;5096051;28;20450;-42
2022/04/27 04:59:33;;;;;;;4.45;2.30;;;;;;;24.21;28.70;101618.53;5095791;28;20024;-43
2022/04/27 05:02:02;;;;;;;3.92;2.50;;;;;;;24.20;29.22;101628.16;5095273;28;20052;-43
2022/04/27 05:04:30;;;;;;;3.95;2.22;;;;;;;24.19;29.20;101625.47;5095434;28;20032;-42
2022/04/27 05:06:58;;;;;;;3.63;2.47;;;;;;;24.23;28.80;101624.69;5095356;28;20025;-41
2022/04/27 05:09:26;;;;;;;6.15;2.95;;;;;;;24.18;29.03;101619.38;5093796;28;20127;-42
2022/04/27 05:11:55;;;;;;;4.00;2.67;;;;;;;24.20;28.81;101627.25;5095426;28;20024;-41
2022/04/27 05:14:23;;;;;;;4.68;2.20;;;;;;;24.23;28.67;101627.31;5095292;28;20028;-45
2022/04/27 05:16:52;;;;;;;3.03;2.10;;;;;;;24.22;29.12;101629.06;5095076;28;20531;-42
2022/04/27 05:19:22;;;;;;;5.22;2.67;;;;;;;24.29;28.54;101632.72;5094039;28;20069;-42
2022/04/27 05:21:51;;;;;;;4.57;2.22;;;;;;;24.26;28.70;101635.25;5095481;28;20486;-41
2022/04/27 05:24:20;;;;;;;4.85;2.30;;;;;;;24.30;28.77;101630.97;5095416;28;20016;-41
2022/04/27 05:26:48;;;;;;;4.88;2.35;;;;;;;24.23;29.03;101622.09;5093690;28;20118;-42
2022/04/27 05:32:05;;;;;;;6.05;3.20;;;;;;;24.21;28.88;101624.69;5091038;28;20032;-45
2022/04/27 05:34:34;;;;;;;4.63;2.50;;;;;;;24.08;28.73;101622.59;5094896;28;20032;-41
2022/04/27 05:37:03;;;;;;;4.45;2.55;;;;;;;24.08;28.68;101618.25;5094947;28;20481;-42
2022/04/27 05:39:31;;;;;;;5.43;2.20;;;;;;;24.11;28.90;101633.16;5094922;28;20032;-43
2022/04/27 05:42:00;;;;;;;3.55;2.22;;;;;;;24.04;29.03;101628.66;5094747;28;20081;-42
2022/04/27 05:44:27;;;;;;;5.00;2.30;;;;;;;24.08;28.65;101641.84;5093406;28;20116;-49
2022/04/27 05:46:56;;;;;;;5.63;2.72;;;;;;;24.08;28.68;101641.84;5094366;28;20381;-42
2022/04/27 05:49:24;;;;;;;8.32;2.65;;;;;;;24.06;28.89;101640.06;5094532;28;20077;-42
2022/04/27 05:51:56;;;;;;;7.93;2.28;;;;;;;24.02;28.81;101639.06;5093154;28;20028;-41
2022/04/27 05:54:25;;;;;;;3.30;1.77;;;;;;;24.11;28.92;101647.19;5094613;28;20059;-45
2022/04/27 05:56:53;;;;;;;4.68;2.40;;;;;;;24.18;29.02;101648.19;5094869;28;20457;-43
2022/04/27 05:59:22;;;;;;;6.38;2.70;;;;;;;24.21;29.13;101660.47;5094302;28;20085;-44
2022/04/27 06:01:50;;;;;;;5.10;1.73;;;;;;;24.29;29.11;101658.94;5093233;28;20020;-42
2022/04/27 06:04:19;;;;;;;4.60;2.20;;;;;;;24.31;28.87;101659.84;5094425;28;20024;-42
2022/04/27 06:06:47;;;;;;;7.70;2.40;;;;;;;24.32;28.99;101665.97;5094309;28;20032;-42
2022/04/27 06:09:16;;;;;;;9.43;2.60;;;;;;;24.17;28.98;101663.88;5094183;28;20051;-46
2022/04/27 06:11:44;;;;;;;3.53;1.77;;;;;;;24.16;29.07;101672.63;5094287;28;20028;-42
2022/04/27 06:14:12;;;;;;;5.28;2.42;;;;;;;24.02;28.86;101643.44;5093580;28;20016;-45
2022/04/27 06:16:40;;;;;;;5.78;2.45;;;;;;;24.14;28.90;101669.06;5093179;28;20031;-43
2022/04/27 06:19:09;;;;;;;5.82;1.95;;;;;;;24.18;29.39;101676.13;5094222;28;20077;-41
2022/04/27 06:21:38;;;;;;;4.63;2.10;;;;;;;24.22;28.75;101670.13;5094062;28;20027;-45
2022/04/27 06:24:06;;;;;;;5.57;2.30;;;;;;;24.24;29.01;101669.28;5094121;28;20128;-42
2022/04/27 06:26:36;;;;;;;4.78;2.08;;;;;;;24.26;28.99;101671.97;5093913;28;20111;-42
2022/04/27 06:29:04;;;;;;;3.45;1.88;;;;;;;24.28;29.12;101673.75;5093844;28;20039;-45
2022/04/27 06:31:33;;;;;;;5.32;2.38;;;;;;;24.30;29.05;101675.53;5093794;28;20031;-43
2022/04/27 06:34:01;;;;;;;4.40;2.00;;;;;;;24.22;28.77;101673.66;5092495;28;20069;-42
2022/04/27 06:36:30;;;;;;;7.40;2.30;;;;;;;24.23;28.87;101674.50;5093746;28;20103;-50
2022/04/27 06:38:58;;;;;;;2.35;1.60;;;;;;;24.22;29.48;101672.75;5092489;28;20401;-42
2022/04/27 06:41:27;;;;;;;4.88;2.00;;;;;;;24.15;29.42;101655.97;5093923;28;20077;-49
2022/04/27 06:43:55;;;;;;;3.40;1.80;;;;;;;24.27;29.36;101674.59;5093675;28;20020;-42
2022/04/27 06:46:23;;;;;;;5.22;2.25;;;;;;;24.17;29.02;101679.59;5093870;28;20031;-45
2022/04/27 06:48:52;;;;;;;4.38;2.10;;;;;;;24.23;28.91;101680.66;5093659;28;20052;-43
2022/04/27 06:51:19;;;;;;;4.13;2.05;;;;;;;24.30;29.41;101683.41;5093485;28;20089;-42
2022/04/27 06:53:47;;;;;;;3.85;2.10;;;;;;;24.24;29.28;101686.78;5093367;28;20028;-45
2022/04/27 06:56:16;;;;;;;4.07;2.00;;;;;;;24.34;29.24;101694.00;5093315;28;20027;-47
2022/04/27 06:58:44;;;;;;;3.90;1.88;;;;;;;24.38;29.44;101689.72;5093586;28;20488;-44
2022/04/27 07:01:13;;;;;;;2.83;1.70;;;;;;;24.37;29.70;101696.69;5093742;28;20035;-42
2022/04/27 07:03:43;;;;;;;3.45;1.83;;;;;;;24.37;29.43;101685.34;5093461;28;20350;-42
2022/04/27 07:06:12;;;;;;;3.83;2.28;;;;;;;24.45;29.64;101686.38;5092345;28;20058;-42
2022/04/27 07:08:41;;;;;;;4.80;2.20;;;;;;;24.48;29.79;101698.69;5093242;28;20024;-45
2022/04/27 07:11:10;;;;;;;5.03;2.17;;;;;;;24.55;29.22;101693.63;5093375;28;20035;-42
2022/04/27 07:13:38;;;;;;;6.57;1.63;;;;;;;24.51;29.45;101690.88;5093526;28;20032;-48
2022/04/27 07:16:06;;;;;;;6.03;2.10;;;;;;;24.59;29.44;101697.19;5093676;28;20043;-42
2022/04/27 07:18:35;;;;;;;4.28;2.38;;;;;;;24.54;29.41;101690.94;5092057;28;20075;-44
2022/04/27 07:21:08;;;;;;;3.63;1.90;;;;;;;24.57;29.39;101701.50;5093498;28;20028;-42
2022/04/27 07:23:36;;;;;;;3.10;1.85;;;;;;;24.54;29.60;101689.22;5093376;28;20427;-42
2022/04/27 07:26:06;;;;;;;5.40;2.15;;;;;;;24.67;29.10;101720.97;5095506;28;20216;-46
2022/04/27 07:28:38;;;;;;;2.83;1.80;;;;;;;24.54;29.52;101702.34;5079077;28;20437;-41
2022/04/27 07:31:07;;;;;;;3.25;1.92;;;;;;;24.62;29.55;101710.38;5096177;28;20114;-43
2022/04/27 07:33:35;;;;;;;4.80;2.33;;;;;;;24.62;28.98;101715.63;5097297;28;20491;-43
2022/04/27 07:36:06;;;;;;;3.38;1.88;;;;;;;24.65;29.41;101722.66;5097292;28;20032;-42
2022/04/27 07:38:35;;;;;;;3.67;1.80;;;;;;;24.67;29.61;101727.06;5097656;28;20457;-42
2022/04/27 07:41:06;;;;;;;3.45;1.90;;;;;;;24.67;29.59;101716.59;5097457;28;20103;-45
2022/04/27 07:43:34;;;;;;;4.18;1.77;;;;;;;24.77;29.46;101730.81;5097164;28;20485;-42
2022/04/27 07:46:05;;;;;;;2.67;1.77;;;;;;;24.73;29.20;101721.13;5096005;28;20100;-43
2022/04/27 07:48:34;;;;;;;4.30;2.40;;;;;;;24.80;29.14;101719.53;5095843;28;20040;-43
2022/04/27 07:51:04;;;;;;;4.82;2.00;;;;;;;24.85;29.26;101733.63;5096665;28;20088;-42
2022/04/27 07:53:33;;;;;;;2.97;1.58;;;;;;;24.82;29.11;101720.44;5096228;28;20024;-45
2022/04/27 07:56:04;;;;;;;6.78;2.67;;;;;;;24.93;29.03;101718.94;5097000;28;20063;-42
2022/04/27 07:58:32;;;;;;;2.92;1.67;;;;;;;24.96;28.87;101718.09;5096952;28;20024;-42
2022/04/27 08:01:00;;;;;;;2.47;1.60;;;;;;;24.93;29.15;101720.66;5096864;28;20036;-43
2022/04/27 08:03:29;;;;;;;2.65;1.70;;;;;;;24.97;29.11;101717.25;5078761;28;20020;-43
2022/04/27 08:05:58;;;;;;;7.45;2.20;;;;;;;24.95;28.96;101713.69;5096794;28;20034;-44
2022/04/27 08:08:26;;;;;;;3.55;1.80;;;;;;;24.92;28.93;101701.41;5096821;28;20111;-46
2022/04/27 08:10:56;;;;;;;3.83;1.92;;;;;;;25.02;28.54;101723.47;5096061;28;20131;-44
2022/04/27 08:13:25;;;;;;;3.15;1.60;;;;;;;25.09;28.43;101730.63;5078653;28;20025;-41
2022/04/27 08:15:53;;;;;;;2.78;1.50;;;;;;;25.06;28.62;101716.56;5096940;28;20024;-42
2022/04/27 08:18:22;;;;;;;3.05;1.85;;;;;;;25.05;28.78;101731.44;5078762;28;20035;-44
2022/04/27 08:21:33;;;;;;;5.07;2.15;;;;;;;25.13;28.20;101731.59;5095090;28;20028;-42
2022/04/27 08:23:40;;;;;;;3.40;1.75;;;;;;;25.12;28.36;101735.06;5092835;28;20071;-44
2022/04/27 08:26:10;;;;;;;2.97;1.60;;;;;;;25.08;28.18;101728.84;5094871;28;20064;-42
2022/04/27 08:28:39;;;;;;;4.28;2.15;;;;;;;25.11;28.24;101736.78;5094992;28;20032;-43
2022/04/27 08:31:09;;;;;;;3.95;2.20;;;;;;;25.17;28.00;101734.28;5096451;28;20040;-41
2022/04/27 08:33:37;;;;;;;4.40;1.70;;;;;;;25.17;28.20;101733.41;5096440;28;20381;-43
2022/04/27 08:36:07;;;;;;;5.05;2.38;;;;;;;25.16;28.05;101753.53;5094902;28;20457;-42
2022/04/27 08:38:37;;;;;;;3.67;2.13;;;;;;;25.20;27.77;101741.34;5095215;28;20485;-42
2022/04/27 08:41:06;;;;;;;3.00;1.70;;;;;;;25.21;28.07;101737.00;5095394;28;20330;-42
2022/04/27 08:43:34;;;;;;;4.60;1.92;;;;;;;25.14;27.90;101739.47;5077863;28;20569;-44
2022/04/27 08:46:04;;;;;;;3.25;1.88;;;;;;;25.20;27.83;101733.47;5094601;28;20055;-42
2022/04/27 08:48:33;;;;;;;6.50;2.22;;;;;;;25.16;28.09;101735.16;5094717;28;20028;-42
2022/04/27 08:51:03;;;;;;;3.60;1.92;;;;;;;25.18;27.74;101745.66;5095963;28;20062;-45
2022/04/27 08:53:31;;;;;;;3.00;2.03;;;;;;;25.24;28.24;101750.16;5094996;28;20024;-42
2022/04/27 08:56:00;;;;;;;3.95;1.83;;;;;;;25.20;27.77;101743.97;5096115;28;20024;-43
2022/04/27 08:58:28;;;;;;;7.93;1.88;;;;;;;25.18;27.58;101745.66;5095204;28;20028;-45
2022/04/27 09:00:56;;;;;;;2.58;1.75;;;;;;;25.24;27.82;101761.56;5095423;28;20032;-42
2022/04/27 09:03:36;;;;;;;3.58;2.05;;;;;;;25.25;27.86;101760.72;5095419;28;20028;-42
2022/04/27 09:06:05;;;;;;;6.00;2.35;;;;;;;25.22;27.75;101755.38;5094573;28;20483;-41
2022/04/27 09:08:53;;;;;;;4.75;1.67;;;;;;;25.27;27.99;101758.09;5095595;28;20035;-42
2022/04/27 09:11:25;;;;;;;2.22;1.63;;;;;;;25.24;27.86;101752.78;5094189;28;20532;-45
2022/04/27 09:13:56;;;;;;;3.00;1.80;;;;;;;25.26;27.66;101751.97;5094102;28;20085;-41
2022/04/27 09:20:46;;;;;;;4.18;1.60;;;;;;;25.26;27.77;101751.06;5094553;28;20024;-42
2022/04/27 09:22:04;;;;;;;3.75;2.03;;;;;;;25.33;27.99;101751.22;5084074;28;20036;-42
2022/04/27 09:24:49;;;;;;;4.43;1.88;;;;;;;25.32;27.83;101749.44;5093895;28;20032;-42
2022/04/27 09:27:18;;;;;;;;;;;;;;;25.45;27.50;101760.25;5094462;28;20145;-41
2022/04/27 09:29:58;;;;;;;6.05;2.13;;;;;;;25.42;27.29;101749.69;5093735;28;19912;-42
2022/04/27 09:32:27;;;;;;;7.00;1.67;;;;;;;25.44;27.56;101745.34;5094145;28;20445;-42
2022/04/27 09:34:57;;;;;;;4.72;2.60;;;;;;;25.33;27.28;101759.09;5093739;28;20017;-43
2022/04/27 09:37:27;;;;;;;6.70;2.72;;;;;;;25.18;26.72;101733.44;5094130;28;20106;-44
2022/04/27 09:40:06;;;;;;;4.22;2.40;;;;;;;25.32;27.15;101748.59;5093754;28;20039;-42
2022/04/27 09:42:36;;;;;;;4.53;2.72;;;;;;;25.22;27.41;101738.75;5095185;28;20024;-41
2022/04/27 09:45:25;;;;;;;2.33;1.77;;;;;;;25.29;27.30;101728.41;5094994;28;20052;-42
2022/04/27 09:48:05;;;;;;;5.50;2.20;;;;;;;25.20;27.10;101709.81;5095034;28;20099;-42
2022/04/27 09:50:55;;;;;;;3.58;2.40;;;;;;;25.34;26.71;101731.13;5093812;28;20032;-42
2022/04/27 09:53:24;;;;;;;4.63;2.35;;;;;;;25.24;26.82;101722.16;5093803;28;20020;-42
2022/04/27 09:55:56;;;;;;;2.47;2.03;;;;;;;25.19;26.93;101718.56;5094655;28;20024;-42
2022/04/27 09:58:26;;;;;;;5.05;2.33;;;;;;;25.11;26.76;101689.53;5093754;28;20024;-46
2022/04/27 10:00:58;;;;;;;7.07;2.75;;;;;;;25.21;26.84;101711.59;5094643;28;20028;-42
2022/04/27 10:03:26;;;;;;;7.72;2.42;;;;;;;25.19;27.16;101726.44;5094584;28;20109;-41
2022/04/27 10:05:55;;;;;;;3.75;2.38;;;;;;;25.11;26.45;101715.78;5094498;28;20024;-46
2022/04/27 10:08:25;;;;;;;2.58;1.83;;;;;;;25.21;26.67;101724.72;5094511;28;20035;-41
2022/04/27 10:10:54;;;;;;;2.28;1.45;;;;;;;25.28;26.93;101741.50;5092902;28;20142;-42
2022/04/27 10:13:24;;;;;;;4.53;2.10;;;;;;;25.34;26.63;101734.63;5076313;28;20473;-42
2022/04/27 10:15:52;;;;;;;5.47;1.77;;;;;;;25.29;26.98;101723.16;5094584;28;20028;-42
2022/04/27 10:18:22;;;;;;;4.53;2.30;;;;;;;25.40;26.68;101739.09;5076165;28;20195;-44
2022/04/27 10:20:51;;;;;;;3.33;1.65;;;;;;;25.41;26.47;101725.09;5093333;28;20115;-44
2022/04/27 10:23:22;;;;;;;2.13;1.23;;;;;;;25.38;26.48;101718.91;5094442;28;20050;-42
2022/04/27 10:26:20;;;;;;;5.25;1.63;;;;;;;25.48;26.73;101726.16;5075735;28;20101;-42
2022/04/27 10:28:51;;;;;;;3.13;1.40;;;;;;;25.51;27.01;101722.72;5094062;28;20091;-42
2022/04/27 10:31:42;;;;;;;4.47;1.95;;;;;;;25.56;26.35;101719.31;5092432;28;20081;-41
2022/04/27 10:34:30;;;;;;;3.20;1.90;;;;;;;25.60;26.41;101725.47;5089412;28;20044;-42
2022/04/27 10:36:59;;;;;;;5.22;2.00;;;;;;;25.52;25.88;101717.47;5094032;28;20034;-42
2022/04/27 10:39:32;;;;;;;3.45;2.22;;;;;;;25.43;26.11;101726.06;5092695;28;20028;-46
2022/04/27 10:42:05;;;;;;;5.72;2.05;;;;;;;25.43;26.35;101717.31;5094034;28;20427;-42
2022/04/27 10:44:54;;;;;;;2.58;1.67;;;;;;;25.48;26.49;101715.66;5094077;28;20035;-41
2022/04/27 10:47:24;;;;;;;3.38;1.67;;;;;;;25.48;26.26;101716.53;5092556;28;20432;-41
2022/04/27 10:50:11;;;;;;;3.85;2.13;;;;;;;25.54;25.51;101713.13;5093405;28;20568;-44
2022/04/27 10:52:51;;;;;;;4.75;2.05;;;;;;;25.48;26.08;101703.41;5094079;28;20024;-45
2022/04/27 10:55:41;;;;;;;4.07;1.88;;;;;;;25.45;25.59;101699.84;5093773;28;20016;-43
2022/04/27 10:58:30;;;;;;;2.40;1.73;;;;;;;25.43;25.35;101706.81;5067876;28;20474;-41
2022/04/27 11:01:21;;;;;;;3.38;1.98;;;;;;;25.43;26.00;101701.56;5083144;28;20127;-42
2022/04/27 11:04:09;;;;;;;5.88;1.50;;;;;;;25.49;25.89;101709.53;5090148;28;20036;-42
2022/04/27 11:07:15;;;;;;;3.17;1.70;;;;;;;25.34;25.47;101692.59;5093308;28;20051;-41
2022/04/27 11:10:12;;;;;;;3.13;1.88;;;;;;;25.33;25.62;101682.94;5093038;28;20052;-42
2022/04/27 11:12:43;;;;;;;6.53;2.03;;;;;;;25.50;25.17;101695.53;5089854;28;20040;-42
2022/04/27 11:15:11;;;;;;;4.80;2.30;;;;;;;25.50;25.28;101698.16;5093478;28;20561;-42
2022/04/27 11:17:40;;;;;;;3.20;2.00;;;;;;;25.53;25.50;101686.84;5093633;28;20029;-41
2022/04/27 11:20:29;;;;;;;5.35;2.22;;;;;;;25.48;25.63;101699.91;5093221;28;20038;-42
2022/04/27 11:22:58;;;;;;;5.40;2.05;;;;;;;25.53;25.42;101698.22;5093143;28;20485;-41
2022/04/27 11:25:30;;;;;;;3.03;1.65;;;;;;;25.41;25.69;101708.47;5093213;28;20048;-42
2022/04/27 11:28:00;;;;;;;3.03;1.70;;;;;;;25.49;25.56;101675.38;5093291;28;20058;-41
2022/04/27 11:30:30;;;;;;;3.90;2.00;;;;;;;25.35;25.86;101685.63;5093180;28;20122;-44
2022/04/27 11:33:00;;;;;;;3.05;1.58;;;;;;;25.43;25.74;101680.53;5093464;28;20032;-42
2022/04/27 11:35:49;;;;;;;2.28;1.92;;;;;;;25.52;26.17;101674.56;5092415;28;20373;-43
2022/04/27 11:38:23;;;;;;;3.75;1.80;;;;;;;25.50;25.41;101682.41;5093365;28;20024;-42
2022/04/27 11:40:52;;;;;;;3.13;1.83;;;;;;;25.50;25.82;101664.00;5092382;28;20370;-44
2022/04/27 11:43:35;;;;;;;3.72;1.20;;;;;;;25.56;25.86;101692.16;5092920;28;20028;-41
2022/04/27 11:46:04;;;;;;;4.90;2.53;;;;;;;25.58;25.31;101683.44;5076537;28;20389;-42
2022/04/27 11:48:32;;;;;;;4.30;2.22;;;;;;;25.54;25.24;101694.75;5093104;28;20032;-42
2022/04/27 11:51:02;;;;;;;4.60;2.30;;;;;;;25.58;25.40;101683.44;5093216;28;20038;-43
2022/04/27 11:53:31;;;;;;;5.22;1.80;;;;;;;25.54;25.82;101678.97;5093299;28;20016;-46